createdAt,value
2022-11-26T00:02:23.052Z,3.80
2022-11-26T00:04:52.333Z,3.57
2022-11-26T00:07:22.678Z,3.63
2022-11-26T00:09:52.044Z,4.00
2022-11-26T00:12:22.668Z,3.40
2022-11-26T00:14:50.896Z,3.70
2022-11-26T00:17:19.895Z,4.07
2022-11-26T00:19:48.250Z,3.33
2022-11-26T00:22:25.220Z,3.77
2022-11-26T00:24:55.624Z,3.80
2022-11-26T00:27:26.316Z,3.97
2022-11-26T00:29:54.236Z,3.80
2022-11-26T00:32:25.316Z,4.27
2022-11-26T00:34:54.748Z,3.50
2022-11-26T00:37:25.142Z,4.00
2022-11-26T00:39:54.759Z,3.50
2022-11-26T00:42:22.700Z,4.20
2022-11-26T00:44:50.590Z,3.60
2022-11-26T00:47:18.506Z,4.07
2022-11-26T00:49:46.405Z,3.70
2022-11-26T00:52:27.759Z,3.60
2022-11-26T00:54:57.317Z,3.70
2022-11-26T00:57:25.260Z,4.17
2022-11-26T00:59:53.219Z,3.77
2022-11-26T01:02:21.256Z,2.97
2022-11-26T01:04:49.150Z,3.87
2022-11-26T01:07:17.166Z,3.50
2022-11-26T01:09:46.810Z,3.60
2022-11-26T01:12:16.799Z,3.00
2022-11-26T01:14:44.893Z,3.47
2022-11-26T01:17:13.375Z,3.97
2022-11-26T01:19:41.279Z,3.60
2022-11-26T01:22:19.906Z,3.67
2022-11-26T01:24:48.011Z,3.30
2022-11-26T01:27:18.414Z,3.43
2022-11-26T01:29:46.652Z,4.63
2022-11-26T01:32:14.575Z,4.43
2022-11-26T01:34:42.537Z,3.40
2022-11-26T01:37:14.243Z,4.17
2022-11-26T01:39:42.207Z,4.20
2022-11-26T01:42:23.250Z,3.37
2022-11-26T01:44:51.221Z,3.63
2022-11-26T01:47:24.136Z,3.57
2022-11-26T01:50:29.543Z,3.30
2022-11-26T01:53:01.016Z,3.67
2022-11-26T01:55:34.893Z,3.80
2022-11-26T01:58:06.792Z,3.40
2022-11-26T02:00:34.853Z,3.40
2022-11-26T02:03:03.346Z,3.43
2022-11-26T02:05:35.623Z,4.00
2022-11-26T02:08:03.822Z,4.13
2022-11-26T02:10:31.733Z,3.80
2022-11-26T02:12:59.923Z,3.40
2022-11-26T02:15:37.748Z,3.37
2022-11-26T02:18:09.443Z,3.30
2022-11-26T02:20:50.954Z,3.40
2022-11-26T02:23:48.655Z,3.53
2022-11-26T02:26:42.810Z,3.57
2022-11-26T02:29:23.029Z,3.33
2022-11-26T02:31:57.537Z,3.77
2022-11-26T02:34:37.871Z,3.73
2022-11-26T02:37:10.699Z,4.17
2022-11-26T02:39:38.828Z,3.70
2022-11-26T02:42:25.327Z,4.17
2022-11-26T02:44:55.715Z,3.73
2022-11-26T02:47:27.549Z,4.30
2022-11-26T02:49:57.080Z,3.57
2022-11-26T02:52:26.151Z,4.60
2022-11-26T02:54:56.075Z,3.50
2022-11-26T02:57:28.847Z,5.17
2022-11-26T02:59:56.903Z,4.40
2022-11-26T03:02:33.030Z,3.93
2022-11-26T03:05:04.420Z,4.07
2022-11-26T03:07:35.282Z,3.67
2022-11-26T03:10:04.339Z,3.80
2022-11-26T03:12:32.312Z,3.87
2022-11-26T03:15:00.220Z,3.83
2022-11-26T03:17:29.460Z,3.93
2022-11-26T03:19:57.359Z,4.90
2022-11-26T03:22:25.390Z,4.07
2022-11-26T03:24:53.247Z,4.07
2022-11-26T03:27:21.201Z,3.73
2022-11-26T03:29:49.078Z,3.43
2022-11-26T03:32:16.927Z,3.30
2022-11-26T03:34:46.138Z,3.30
2022-11-26T03:37:14.190Z,3.80
2022-11-26T03:39:42.546Z,3.60
2022-11-26T03:42:10.465Z,3.90
2022-11-26T03:44:38.881Z,3.77
2022-11-26T03:47:07.037Z,3.83
2022-11-26T03:49:35.197Z,3.73
2022-11-26T03:52:04.501Z,3.80
2022-11-26T03:54:32.589Z,3.23
2022-11-26T03:57:00.601Z,3.90
2022-11-26T03:59:28.599Z,3.50
2022-11-26T04:01:56.526Z,3.47
2022-11-26T04:04:24.463Z,3.50
2022-11-26T04:06:52.426Z,3.70
2022-11-26T04:09:21.684Z,3.47
2022-11-26T04:11:49.610Z,3.47
2022-11-26T04:14:17.867Z,4.23
2022-11-26T04:16:45.883Z,4.10
2022-11-26T04:19:13.897Z,3.40
2022-11-26T04:21:42.005Z,4.67
2022-11-26T04:24:09.909Z,4.13
2022-11-26T04:26:39.230Z,4.30
2022-11-26T04:29:07.480Z,4.10
2022-11-26T04:31:35.392Z,4.00
2022-11-26T04:34:03.469Z,4.13
2022-11-26T04:36:31.439Z,4.00
2022-11-26T04:38:59.904Z,3.60
2022-11-26T04:41:27.957Z,4.03
2022-11-26T04:43:57.265Z,3.90
2022-11-26T04:46:25.186Z,4.73
2022-11-26T04:48:53.070Z,4.50
2022-11-26T04:51:20.941Z,4.17
2022-11-26T04:53:48.858Z,4.03
2022-11-26T04:56:16.793Z,4.30
2022-11-26T04:58:44.647Z,3.97
2022-11-26T05:01:14.302Z,4.50
2022-11-26T05:03:42.798Z,4.33
2022-11-26T05:06:11.607Z,3.50
2022-11-26T05:08:39.512Z,3.60
2022-11-26T05:11:07.552Z,4.50
2022-11-26T05:13:35.433Z,3.67
2022-11-26T05:16:03.366Z,4.00
2022-11-26T05:18:32.644Z,3.43
2022-11-26T05:21:00.502Z,3.63
2022-11-26T05:23:28.452Z,4.20
2022-11-26T05:25:56.341Z,3.80
2022-11-26T05:28:24.219Z,3.20
2022-11-26T05:30:58.446Z,3.30
2022-11-26T05:33:26.467Z,2.97
2022-11-26T05:35:55.788Z,3.43
2022-11-26T05:38:24.193Z,3.73
2022-11-26T05:40:52.237Z,3.00
2022-11-26T05:43:20.153Z,3.03
2022-11-26T05:45:48.214Z,3.10
2022-11-26T05:48:16.145Z,3.00
2022-11-26T05:50:44.059Z,3.10
2022-11-26T05:53:13.458Z,2.97
2022-11-26T05:55:41.341Z,2.90
2022-11-26T05:58:09.775Z,3.10
2022-11-26T06:00:37.839Z,3.10
2022-11-26T06:03:05.816Z,3.07
2022-11-26T06:05:33.892Z,2.93
2022-11-26T06:08:01.804Z,3.17
2022-11-26T06:10:31.142Z,3.10
2022-11-26T06:12:59.084Z,2.93
2022-11-26T06:15:27.059Z,3.17
2022-11-26T06:17:55.030Z,3.00
2022-11-26T06:20:22.952Z,3.57
2022-11-26T06:22:50.904Z,3.53
2022-11-26T06:25:18.919Z,2.80
2022-11-26T06:27:48.268Z,3.67
2022-11-26T06:30:16.323Z,2.87
2022-11-26T06:32:44.215Z,2.93
2022-11-26T06:35:12.170Z,3.33
2022-11-26T06:37:40.903Z,3.07
2022-11-26T06:40:10.159Z,3.70
2022-11-26T06:42:38.034Z,3.57
2022-11-26T06:45:08.241Z,3.50
2022-11-26T06:47:36.193Z,3.17
2022-11-26T06:50:10.462Z,3.23
2022-11-26T06:52:38.779Z,4.20
2022-11-26T06:55:07.276Z,3.50
2022-11-26T06:57:35.334Z,3.63
2022-11-26T07:00:03.278Z,3.30
2022-11-26T07:02:32.677Z,3.63
2022-11-26T07:05:00.756Z,4.00
2022-11-26T07:07:28.683Z,3.90
2022-11-26T07:09:56.653Z,3.50
2022-11-26T07:12:24.519Z,4.17
2022-11-26T07:14:52.455Z,3.70
2022-11-26T07:17:20.361Z,3.40
2022-11-26T07:19:50.632Z,3.57
2022-11-26T07:22:18.560Z,3.20
2022-11-26T07:24:46.573Z,4.07
2022-11-26T07:27:14.479Z,3.87
2022-11-26T07:29:42.350Z,3.40
2022-11-26T07:32:10.230Z,3.30
2022-11-26T07:34:38.433Z,3.30
2022-11-26T07:37:07.888Z,3.00
2022-11-26T07:39:35.799Z,3.27
2022-11-26T07:42:03.750Z,3.53
2022-11-26T07:44:31.698Z,3.80
2022-11-26T07:47:00.464Z,2.73
2022-11-26T07:49:28.486Z,3.07
2022-11-26T07:51:56.444Z,3.03
2022-11-26T07:54:25.783Z,3.10
2022-11-26T07:56:53.696Z,3.10
2022-11-26T07:59:22.487Z,3.33
2022-11-26T08:01:50.595Z,3.60
2022-11-26T08:04:18.601Z,3.40
2022-11-26T08:06:46.546Z,3.40
2022-11-26T08:09:14.422Z,3.70
2022-11-26T08:11:43.716Z,2.97
2022-11-26T08:14:13.439Z,2.77
2022-11-26T08:16:41.614Z,2.37
2022-11-26T08:19:12.861Z,2.73
2022-11-26T08:21:41.188Z,2.60
2022-11-26T08:24:13.595Z,2.57
2022-11-26T08:26:44.448Z,2.50
2022-11-26T08:29:13.052Z,2.37
2022-11-26T08:31:45.561Z,2.43
2022-11-26T08:34:15.927Z,1.87
2022-11-26T08:36:44.557Z,1.87
2022-11-26T08:39:14.776Z,1.97
2022-11-26T08:41:48.926Z,1.70
2022-11-26T08:44:20.216Z,1.73
2022-11-26T08:46:48.150Z,1.70
2022-11-26T08:49:16.973Z,1.70
2022-11-26T08:51:45.071Z,1.80
2022-11-26T08:54:13.053Z,1.40
2022-11-26T08:56:40.998Z,1.80
2022-11-26T08:59:10.391Z,2.00
2022-11-26T09:01:38.385Z,1.33
2022-11-26T09:04:06.601Z,1.60
2022-11-26T09:06:37.859Z,1.60
2022-11-26T09:09:17.225Z,2.00
2022-11-26T09:11:48.636Z,1.57
2022-11-26T09:14:21.165Z,2.13
2022-11-26T09:16:49.198Z,2.33
2022-11-26T09:19:17.762Z,2.53
2022-11-26T09:21:46.511Z,1.90
2022-11-26T09:24:16.360Z,2.07
2022-11-26T09:26:44.849Z,2.00
2022-11-26T09:29:14.455Z,2.00
2022-11-26T09:32:07.410Z,1.80
2022-11-26T09:34:33.155Z,1.63
2022-11-26T09:37:01.033Z,1.43
2022-11-26T09:39:29.158Z,2.20
2022-11-26T09:42:05.147Z,2.07
2022-11-26T09:44:47.090Z,1.40
2022-11-26T09:47:20.684Z,1.80
2022-11-26T09:49:58.162Z,2.20
2022-11-26T09:52:29.587Z,1.90
2022-11-26T09:55:06.695Z,1.50
2022-11-26T09:57:40.868Z,1.60
2022-11-26T10:00:23.017Z,2.20
2022-11-26T10:02:55.281Z,1.90
2022-11-26T10:05:32.970Z,1.73
2022-11-26T10:08:09.047Z,1.80
2022-11-26T10:10:46.479Z,1.63
2022-11-26T10:13:21.748Z,2.03
2022-11-26T10:15:59.316Z,1.70
2022-11-26T10:18:36.799Z,1.60
2022-11-26T10:21:27.423Z,2.30
2022-11-26T10:24:05.457Z,1.97
2022-11-26T10:26:37.059Z,1.93
2022-11-26T10:29:21.601Z,1.63
2022-11-26T10:31:51.012Z,2.20
2022-11-26T10:34:26.588Z,1.77
2022-11-26T10:36:57.102Z,2.00
2022-11-26T10:39:25.133Z,2.03
2022-11-26T10:41:53.000Z,2.20
2022-11-26T10:44:40.413Z,2.80
2022-11-26T10:47:25.877Z,2.50
2022-11-26T10:49:56.631Z,2.33
2022-11-26T10:52:27.990Z,2.10
2022-11-26T10:55:18.862Z,2.23
2022-11-26T10:57:51.588Z,1.70
2022-11-26T11:00:36.958Z,1.83
2022-11-26T11:03:06.905Z,1.83
2022-11-26T11:05:36.254Z,2.07
2022-11-26T11:08:04.276Z,2.13
2022-11-26T11:10:32.245Z,1.80
2022-11-26T11:13:12.587Z,1.77
2022-11-26T11:15:41.524Z,2.20
2022-11-26T11:18:20.185Z,1.80
2022-11-26T11:20:56.564Z,2.23
2022-11-26T11:23:40.361Z,2.07
2022-11-26T11:26:20.965Z,2.00
2022-11-26T11:28:50.999Z,4.80
2022-11-26T11:31:20.750Z,5.77
2022-11-26T11:33:49.264Z,6.03
2022-11-26T11:36:27.791Z,7.90
2022-11-26T11:38:57.983Z,5.30
2022-11-26T11:41:33.388Z,3.00
2022-11-26T11:44:06.413Z,2.40
2022-11-26T11:46:54.437Z,2.33
2022-11-26T11:49:32.877Z,2.47
2022-11-26T11:52:14.471Z,2.60
2022-11-26T11:54:52.462Z,2.83
2022-11-26T11:57:33.993Z,2.90
2022-11-26T12:00:13.640Z,3.10
2022-11-26T12:03:03.321Z,2.70
2022-11-26T12:05:41.179Z,2.40
2022-11-26T12:08:22.956Z,3.57
2022-11-26T12:11:01.398Z,2.63
2022-11-26T12:13:31.762Z,2.60
2022-11-26T12:16:07.054Z,3.23
2022-11-26T12:18:42.820Z,2.67
2022-11-26T12:21:13.806Z,1.93
2022-11-26T12:23:53.599Z,2.03
2022-11-26T12:26:25.275Z,2.00
2022-11-26T12:28:57.843Z,2.33
2022-11-26T12:31:34.172Z,2.17
2022-11-26T12:34:08.815Z,2.83
2022-11-26T12:36:44.347Z,2.90
2022-11-26T12:39:19.341Z,3.03
2022-11-26T12:41:52.722Z,3.37
2022-11-26T12:44:28.769Z,3.77
2022-11-26T12:47:05.587Z,5.23
2022-11-26T12:49:40.141Z,4.70
2022-11-26T12:52:22.954Z,5.63
2022-11-26T12:55:00.596Z,6.13
2022-11-26T12:57:34.070Z,7.43
2022-11-26T13:00:06.318Z,6.50
2022-11-26T13:02:37.989Z,5.90
2022-11-26T13:05:06.884Z,6.60
2022-11-26T13:07:54.595Z,7.10
2022-11-26T13:10:34.651Z,5.90
2022-11-26T13:13:15.360Z,6.67
2022-11-26T13:15:47.487Z,6.70
2022-11-26T13:18:31.018Z,6.30
2022-11-26T13:21:10.964Z,5.00
2022-11-26T13:23:52.905Z,5.77
2022-11-26T13:26:43.171Z,6.10
2022-11-26T13:29:38.541Z,6.97
2022-11-26T13:32:26.908Z,7.73
2022-11-26T13:35:10.008Z,7.80
2022-11-26T13:37:53.146Z,7.33
2022-11-26T13:40:40.399Z,5.90
2022-11-26T13:43:57.752Z,6.57
2022-11-26T13:46:29.649Z,6.33
2022-11-26T13:49:02.202Z,7.23
2022-11-26T13:51:35.568Z,7.50
2022-11-26T13:54:11.591Z,6.50
2022-11-26T13:56:41.133Z,7.20
2022-11-26T13:59:17.936Z,6.93
2022-11-26T14:01:47.336Z,6.40
2022-11-26T14:04:16.790Z,9.93
2022-11-26T14:07:21.441Z,7.23
2022-11-26T14:09:52.892Z,9.07
2022-11-26T14:12:22.253Z,8.70
2022-11-26T14:14:52.120Z,9.13
2022-11-26T14:17:24.977Z,9.93
2022-11-26T14:20:10.228Z,9.50
2022-11-26T14:22:39.197Z,10.43
2022-11-26T14:25:10.827Z,8.10
2022-11-26T14:27:42.149Z,7.10
2022-11-26T14:30:37.951Z,6.80
2022-11-26T14:33:13.460Z,6.60
2022-11-26T14:35:41.969Z,12.60
2022-11-26T14:38:25.172Z,6.43
2022-11-26T14:41:00.880Z,6.43
2022-11-26T14:43:29.582Z,5.37
2022-11-26T14:46:06.364Z,5.20
2022-11-26T14:48:36.657Z,5.07
2022-11-26T14:51:09.327Z,4.87
2022-11-26T14:53:41.738Z,4.27
2022-11-26T14:56:11.156Z,4.87
2022-11-26T14:58:43.089Z,4.70
2022-11-26T15:01:21.741Z,5.13
2022-11-26T15:03:58.737Z,5.00
2022-11-26T15:06:29.132Z,4.83
2022-11-26T15:09:15.156Z,5.20
2022-11-26T15:11:47.372Z,4.40
2022-11-26T15:14:21.726Z,4.83
2022-11-26T15:16:56.301Z,4.97
2022-11-26T15:19:24.730Z,6.00
2022-11-26T15:21:52.755Z,5.10
2022-11-26T15:24:20.816Z,4.83
2022-11-26T15:26:49.155Z,4.70
2022-11-26T15:29:35.795Z,6.23
2022-11-26T15:32:06.066Z,4.37
2022-11-26T15:34:34.559Z,5.00
2022-11-26T15:37:02.498Z,4.40
2022-11-26T15:39:32.247Z,4.87
2022-11-26T15:42:05.620Z,4.33
2022-11-26T15:44:41.946Z,4.40
2022-11-26T15:47:21.032Z,4.90
2022-11-26T15:49:54.138Z,4.53
2022-11-26T15:52:25.963Z,3.90
2022-11-26T15:55:16.552Z,5.40
2022-11-26T15:57:45.329Z,5.00
2022-11-26T16:00:22.618Z,4.00
2022-11-26T16:02:52.624Z,4.17
2022-11-26T16:05:28.663Z,5.50
2022-11-26T16:08:01.826Z,4.77
2022-11-26T16:10:35.178Z,4.70
2022-11-26T16:13:19.936Z,4.47
2022-11-26T16:15:51.543Z,4.50
2022-11-26T16:18:23.583Z,5.03
2022-11-26T16:20:51.514Z,5.17
2022-11-26T16:23:28.087Z,4.50
2022-11-26T16:26:16.193Z,4.33
2022-11-26T16:28:44.984Z,4.80
2022-11-26T16:31:13.697Z,4.60
2022-11-26T16:33:43.188Z,5.27
2022-11-26T16:36:19.909Z,4.87
2022-11-26T16:38:48.042Z,6.10
2022-11-26T16:41:17.624Z,6.50
2022-11-26T16:43:45.605Z,10.80
2022-11-26T16:46:16.480Z,6.30
2022-11-26T16:48:47.426Z,4.73
2022-11-26T16:51:15.463Z,4.80
2022-11-26T16:53:43.462Z,4.10
2022-11-26T16:56:19.954Z,4.47
2022-11-26T16:58:47.990Z,4.83
2022-11-26T17:01:15.977Z,5.63
2022-11-26T17:03:45.383Z,5.13
2022-11-26T17:06:16.391Z,4.77
2022-11-26T17:08:49.512Z,5.40
2022-11-26T17:11:18.634Z,5.20
2022-11-26T17:13:46.680Z,5.70
2022-11-26T17:16:16.823Z,5.83
2022-11-26T17:18:46.669Z,5.87
2022-11-26T17:21:15.026Z,5.43
2022-11-26T17:23:43.208Z,5.50
2022-11-26T17:26:19.652Z,6.43
2022-11-26T17:28:47.840Z,6.80
2022-11-26T17:31:16.110Z,9.97
2022-11-26T17:33:44.293Z,8.30
2022-11-26T17:36:19.011Z,9.17
2022-11-26T17:38:47.755Z,6.53
2022-11-26T17:41:16.722Z,6.90
2022-11-26T17:43:44.800Z,6.40
2022-11-26T17:46:19.306Z,8.00
2022-11-26T17:48:47.813Z,6.53
2022-11-26T17:51:18.075Z,5.87
2022-11-26T17:53:46.231Z,5.90
2022-11-26T17:56:18.973Z,5.40
2022-11-26T17:58:47.373Z,5.13
2022-11-26T18:01:16.226Z,4.00
2022-11-26T18:03:44.716Z,4.83
2022-11-26T18:06:17.407Z,3.97
2022-11-26T18:08:45.903Z,8.03
2022-11-26T18:11:15.705Z,6.10
2022-11-26T18:13:43.843Z,5.00
2022-11-26T18:16:11.903Z,4.50
2022-11-26T18:18:39.941Z,5.20
2022-11-26T18:21:07.842Z,7.40
2022-11-26T18:23:37.137Z,5.93
2022-11-26T18:26:05.136Z,5.90
2022-11-26T18:28:33.114Z,6.20
2022-11-26T18:31:01.172Z,5.47
2022-11-26T18:33:29.123Z,3.50
2022-11-26T18:35:57.033Z,3.67
2022-11-26T18:38:28.876Z,3.83
2022-11-26T18:41:04.865Z,3.60
2022-11-26T18:43:33.440Z,3.37
2022-11-26T18:46:04.053Z,3.00
2022-11-26T18:48:34.360Z,6.37
2022-11-26T18:51:02.623Z,9.47
2022-11-26T18:53:31.001Z,10.60
2022-11-26T18:55:59.265Z,7.97
2022-11-26T18:58:28.845Z,7.23
2022-11-26T19:00:58.617Z,8.93
2022-11-26T19:03:27.851Z,7.67
2022-11-26T19:05:55.917Z,8.20
2022-11-26T19:08:24.412Z,8.07
2022-11-26T19:10:52.262Z,7.80
2022-11-26T19:13:20.177Z,6.90
2022-11-26T19:15:50.040Z,9.83
2022-11-26T19:18:18.099Z,13.33
2022-11-26T19:20:48.657Z,8.57
2022-11-26T19:23:16.743Z,6.00
2022-11-26T19:25:45.624Z,5.87
2022-11-26T19:28:13.579Z,5.27
2022-11-26T19:30:41.484Z,4.80
2022-11-26T19:33:10.920Z,5.70
2022-11-26T19:35:40.441Z,4.83
2022-11-26T19:38:08.357Z,5.50
2022-11-26T19:40:36.293Z,4.00
2022-11-26T19:43:04.185Z,3.87
2022-11-26T19:45:32.168Z,3.27
2022-11-26T19:48:00.233Z,6.03
2022-11-26T19:50:29.637Z,6.20
2022-11-26T19:52:57.538Z,5.53
2022-11-26T19:55:25.465Z,6.00
2022-11-26T19:57:53.369Z,11.00
2022-11-26T20:00:21.827Z,14.20
2022-11-26T20:02:49.946Z,6.10
2022-11-26T20:05:17.963Z,6.30
2022-11-26T20:07:47.318Z,6.20
2022-11-26T20:10:16.450Z,6.20
2022-11-26T20:12:44.378Z,9.80
2022-11-26T20:15:12.762Z,21.97
2022-11-26T20:17:40.772Z,10.80
2022-11-26T20:20:10.066Z,3.87
2022-11-26T20:22:38.000Z,3.10
2022-11-26T20:25:09.032Z,3.50
2022-11-26T20:27:36.943Z,3.50
2022-11-26T20:30:05.797Z,3.60
2022-11-26T20:32:37.021Z,2.70
2022-11-26T20:35:06.080Z,3.30
2022-11-26T20:37:34.032Z,4.17
2022-11-26T20:40:01.988Z,4.07
2022-11-26T20:42:31.272Z,3.37
2022-11-26T20:44:59.141Z,3.27
2022-11-26T20:47:27.233Z,3.03
2022-11-26T20:49:55.494Z,3.20
2022-11-26T20:52:24.159Z,3.33
2022-11-26T20:54:53.989Z,3.70
2022-11-26T20:57:23.599Z,3.40
2022-11-26T20:59:52.902Z,3.63
2022-11-26T21:02:20.977Z,3.10
2022-11-26T21:04:48.969Z,2.70
2022-11-26T21:07:16.883Z,2.63
2022-11-26T21:09:46.237Z,3.20
2022-11-26T21:12:14.505Z,3.10
2022-11-26T21:14:42.461Z,3.93
2022-11-26T21:17:12.073Z,3.07
2022-11-26T21:19:40.473Z,3.30
2022-11-26T21:22:08.753Z,3.30
2022-11-26T21:24:37.156Z,4.70
2022-11-26T21:27:05.625Z,3.30
2022-11-26T21:29:33.525Z,3.67
2022-11-26T21:32:01.425Z,3.40
2022-11-26T21:34:30.689Z,4.73
2022-11-26T21:36:58.655Z,3.80
2022-11-26T21:39:26.724Z,3.60
2022-11-26T21:41:54.623Z,3.40
2022-11-26T21:44:22.857Z,3.73
2022-11-26T21:46:50.752Z,3.23
2022-11-26T21:49:18.734Z,2.70
2022-11-26T21:51:48.040Z,3.00
2022-11-26T21:54:16.375Z,2.70
2022-11-26T21:56:45.477Z,3.20
2022-11-26T21:59:13.491Z,2.87
2022-11-26T22:01:41.811Z,2.67
2022-11-26T22:04:14.470Z,2.43
2022-11-26T22:06:43.160Z,2.83
2022-11-26T22:09:13.223Z,2.93
2022-11-26T22:11:42.967Z,2.53
2022-11-26T22:14:14.646Z,2.90
2022-11-26T22:16:42.594Z,2.40
2022-11-26T22:19:10.744Z,2.70
2022-11-26T22:21:40.310Z,2.53
2022-11-26T22:24:09.615Z,2.93
2022-11-26T22:26:39.078Z,2.87
2022-11-26T22:29:07.814Z,2.30
2022-11-26T22:31:38.192Z,2.03
2022-11-26T22:34:08.511Z,2.67
2022-11-26T22:36:36.656Z,2.40
2022-11-26T22:39:06.756Z,2.10
2022-11-26T22:41:34.675Z,2.37
2022-11-26T22:44:04.061Z,2.20
2022-11-26T22:46:34.144Z,2.50
2022-11-26T22:49:03.371Z,2.10
2022-11-26T22:51:32.956Z,2.60
2022-11-26T22:54:02.570Z,2.80
2022-11-26T22:56:31.365Z,2.20
2022-11-26T22:58:59.729Z,2.87
2022-11-26T23:01:31.069Z,2.80
2022-11-26T23:04:00.718Z,2.60
2022-11-26T23:06:31.024Z,2.60
2022-11-26T23:09:00.426Z,2.47
2022-11-26T23:11:30.587Z,2.50
2022-11-26T23:13:58.816Z,2.37
2022-11-26T23:16:29.209Z,2.70
2022-11-26T23:18:58.192Z,2.70
2022-11-26T23:21:28.515Z,2.30
2022-11-26T23:23:56.706Z,2.40
2022-11-26T23:26:27.715Z,1.97
2022-11-26T23:28:56.349Z,2.30
2022-11-26T23:31:29.336Z,2.20
2022-11-26T23:33:59.280Z,2.30
2022-11-26T23:36:28.536Z,2.50
2022-11-26T23:38:59.688Z,2.20
2022-11-26T23:41:27.653Z,2.30
2022-11-26T23:43:55.700Z,2.33
2022-11-26T23:46:27.325Z,2.30
2022-11-26T23:48:55.863Z,2.33
2022-11-26T23:51:27.105Z,2.20
2022-11-26T23:53:55.851Z,2.10
2022-11-26T23:56:26.104Z,2.63
2022-11-26T23:58:55.763Z,2.10
